Time;durP1;ratioP1;P1;durP2;ratioP2;P2;SDS_P1;SDS_P2;PMS_P1;PMS_P2;Temp;Humidity;BMP_temperature;BMP_pressure;BME280_temperature;BME280_humidity;BME280_pressure;Samples;Min_cycle;Max_cycle;Signal;HPM_P1;HPM_P2
2022/12/17 13:06:11;;;;;;;119.83;53.33;;;;;;;;;;742895;187;721925;-59
2022/12/17 13:08:37;;;;;;;105.80;43.97;;;;;;;;;;738554;188;918740;-60
2022/12/17 13:11:08;;;;;;;103.18;51.97;;;;;;;;;;741066;187;717041;-58
2022/12/17 13:13:34;;;;;;;99.07;48.87;;;;;;;;;;735549;188;921519;-60
2022/12/17 13:15:59;;;;;;;113.80;57.22;;;;;;;;;;737587;188;873501;-59
2022/12/17 13:18:41;;;;;;;101.93;39.97;;;;;;;;;;742985;187;915286;-60
2022/12/17 13:21:13;;;;;;;98.62;45.67;;;;;;;;;;743805;187;911684;-59
2022/12/17 13:23:39;;;;;;;115.20;48.37;;;;;;;;;;739342;188;870225;-61
2022/12/17 13:26:12;;;;;;;108.30;54.22;;;;;;;;;;734523;188;919737;-60
2022/12/17 13:28:38;;;;;;;114.67;51.87;;;;;;;;;;742331;188;837151;-60
2022/12/17 13:31:04;;;;;;;120.27;55.37;;;;;;;;;;739168;188;918834;-60
2022/12/17 13:33:36;;;;;;;113.27;48.27;;;;;;;;;;742544;188;838629;-60
2022/12/17 13:36:17;;;;;;;108.73;51.50;;;;;;;;;;736164;187;925251;-59
2022/12/17 13:38:53;;;;;;;112.63;51.67;;;;;;;;;;735503;188;893199;-59
2022/12/17 13:41:19;;;;;;;101.47;53.43;;;;;;;;;;738495;188;870123;-58
2022/12/17 13:43:46;;;;;;;103.70;46.70;;;;;;;;;;737330;188;919076;-60
2022/12/17 13:46:15;;;;;;;102.47;48.05;;;;;;;;;;745844;187;918854;-59
2022/12/17 13:48:41;;;;;;;122.30;56.03;;;;;;;;;;740949;187;929977;-60
2022/12/17 13:51:07;;;;;;;103.40;53.40;;;;;;;;;;745477;187;917748;-60
2022/12/17 13:53:33;;;;;;;109.83;53.00;;;;;;;;;;740321;188;918822;-59
2022/12/17 13:55:59;;;;;;;94.33;46.77;;;;;;;;;;730236;188;922396;-59
2022/12/17 13:58:25;;;;;;;118.33;53.33;;;;;;;;;;736666;188;862875;-61
2022/12/17 14:00:51;;;;;;;120.17;50.60;;;;;;;;;;741445;188;714195;-59
2022/12/17 14:03:17;;;;;;;111.60;53.85;;;;;;;;;;747343;186;919493;-60
2022/12/17 14:05:43;;;;;;;122.13;52.57;;;;;;;;;;741160;187;926589;-60
2022/12/17 14:08:11;;;;;;;108.00;48.87;;;;;;;;;;742068;187;906274;-60
2022/12/17 14:10:36;;;;;;;89.87;43.37;;;;;;;;;;750945;187;918475;-61
2022/12/17 14:13:03;;;;;;;114.90;55.70;;;;;;;;;;744048;187;914102;-59
2022/12/17 14:15:30;;;;;;;105.30;53.70;;;;;;;;;;738655;188;918272;-59
2022/12/17 14:17:55;;;;;;;103.10;45.60;;;;;;;;;;736763;188;917421;-60
2022/12/17 14:20:21;;;;;;;111.30;47.30;;;;;;;;;;738091;187;920705;-60
2022/12/17 14:22:47;;;;;;;73.60;35.63;;;;;;;;;;736167;187;919656;-59
2022/12/17 14:25:17;;;;;;;85.80;43.80;;;;;;;;;;738612;187;917560;-61
2022/12/17 14:27:48;;;;;;;92.37;44.17;;;;;;;;;;743461;188;919806;-59
2022/12/17 14:30:20;;;;;;;134.43;61.30;;;;;;;;;;717615;191;920106;-61
2022/12/17 14:32:46;;;;;;;106.03;49.90;;;;;;;;;;730146;191;918440;-59
2022/12/17 14:35:17;;;;;;;122.07;54.70;;;;;;;;;;722673;192;1015319;-59
2022/12/17 14:37:43;;;;;;;104.83;45.63;;;;;;;;;;745575;188;1023468;-59
2022/12/17 14:40:10;;;;;;;104.87;45.80;;;;;;;;;;739359;187;919349;-60
2022/12/17 14:42:35;;;;;;;115.40;54.13;;;;;;;;;;738376;187;823794;-60
2022/12/17 14:45:01;;;;;;;116.33;53.90;;;;;;;;;;736164;187;919689;-59
2022/12/17 14:47:27;;;;;;;120.83;50.63;;;;;;;;;;737350;189;816654;-60
2022/12/17 14:50:07;;;;;;;172.27;83.00;;;;;;;;;;733486;188;918578;-58
2022/12/17 14:52:33;;;;;;;123.47;59.47;;;;;;;;;;735277;187;920212;-59
2022/12/17 14:54:59;;;;;;;117.90;51.57;;;;;;;;;;743683;186;816854;-60
2022/12/17 14:57:24;;;;;;;135.20;67.23;;;;;;;;;;745131;187;914379;-58
2022/12/17 14:59:51;;;;;;;117.63;55.77;;;;;;;;;;739297;188;913600;-59
2022/12/17 15:02:35;;;;;;;109.80;50.90;;;;;;;;;;735754;188;917220;-61
2022/12/17 15:04:57;;;;;;;105.32;53.58;;;;;;;;;;736309;188;920234;-60
2022/12/17 15:07:23;;;;;;;105.43;49.07;;;;;;;;;;746031;187;915910;-59
2022/12/17 15:09:49;;;;;;;106.87;51.90;;;;;;;;;;735281;188;920270;-59
2022/12/17 15:12:14;;;;;;;108.00;50.90;;;;;;;;;;742024;188;917211;-58
2022/12/17 15:14:40;;;;;;;117.93;54.20;;;;;;;;;;745922;187;909797;-61
2022/12/17 15:17:06;;;;;;;100.00;50.80;;;;;;;;;;737234;187;921424;-60
2022/12/17 15:19:32;;;;;;;112.70;51.23;;;;;;;;;;739235;187;938535;-61
2022/12/17 15:21:58;;;;;;;114.10;46.17;;;;;;;;;;737521;187;923596;-59
2022/12/17 15:24:24;;;;;;;105.13;48.77;;;;;;;;;;741409;188;866118;-59
2022/12/17 15:26:49;;;;;;;101.33;46.07;;;;;;;;;;738964;188;925350;-59
2022/12/17 15:29:15;;;;;;;107.72;48.08;;;;;;;;;;736498;187;917015;-59
2022/12/17 15:31:41;;;;;;;100.53;49.10;;;;;;;;;;731628;189;921278;-61
2022/12/17 15:34:07;;;;;;;104.90;47.57;;;;;;;;;;736781;188;918968;-59
2022/12/17 15:36:33;;;;;;;107.50;51.70;;;;;;;;;;736424;188;918524;-60
2022/12/17 15:38:59;;;;;;;147.27;63.07;;;;;;;;;;743466;187;920992;-60
2022/12/17 15:43:56;;;;;;;104.47;46.97;;;;;;;;;;741497;188;919177;-58
2022/12/17 15:46:22;;;;;;;93.80;45.03;;;;;;;;;;738698;188;918646;-58
2022/12/17 15:48:48;;;;;;;96.60;48.60;;;;;;;;;;743940;188;816990;-59
2022/12/17 15:51:14;;;;;;;105.53;50.17;;;;;;;;;;737006;188;918064;-58
2022/12/17 15:53:40;;;;;;;99.57;47.80;;;;;;;;;;740151;188;918970;-58
2022/12/17 15:56:06;;;;;;;102.10;45.87;;;;;;;;;;742270;188;821807;-60
2022/12/17 15:58:32;;;;;;;108.03;48.87;;;;;;;;;;738371;187;857643;-58
2022/12/17 16:00:58;;;;;;;95.03;46.10;;;;;;;;;;741774;187;919037;-60
2022/12/17 16:03:24;;;;;;;79.80;40.80;;;;;;;;;;744182;187;908176;-59
2022/12/17 16:05:49;;;;;;;87.13;42.13;;;;;;;;;;739176;188;918398;-58
2022/12/17 16:08:15;;;;;;;94.67;46.97;;;;;;;;;;736327;188;919119;-59
2022/12/17 16:10:41;;;;;;;89.93;44.03;;;;;;;;;;738564;188;916788;-58
2022/12/17 16:13:07;;;;;;;89.87;45.43;;;;;;;;;;741887;187;906158;-58
2022/12/17 16:15:33;;;;;;;90.23;44.70;;;;;;;;;;736995;187;818755;-59
2022/12/17 16:17:59;;;;;;;103.47;44.97;;;;;;;;;;739779;187;921563;-58
2022/12/17 16:20:24;;;;;;;93.30;44.50;;;;;;;;;;739686;188;917919;-58
2022/12/17 16:22:50;;;;;;;96.63;49.73;;;;;;;;;;736732;187;918305;-58
2022/12/17 16:25:16;;;;;;;96.77;44.60;;;;;;;;;;738455;187;819237;-57
2022/12/17 16:27:42;;;;;;;98.00;49.83;;;;;;;;;;746450;187;739907;-57
2022/12/17 16:30:10;;;;;;;89.57;44.80;;;;;;;;;;742984;187;816578;-56
2022/12/17 16:32:34;;;;;;;102.87;48.73;;;;;;;;;;732369;188;817097;-58
2022/12/17 16:35:00;;;;;;;102.17;51.27;;;;;;;;;;741624;188;875312;-58
2022/12/17 16:37:26;;;;;;;107.43;50.97;;;;;;;;;;744636;187;815903;-58
2022/12/17 16:39:52;;;;;;;98.40;50.53;;;;;;;;;;740744;188;918935;-57
2022/12/17 16:42:18;;;;;;;102.63;51.27;;;;;;;;;;734402;187;920727;-57
2022/12/17 16:44:44;;;;;;;92.67;41.50;;;;;;;;;;742741;188;918748;-57
2022/12/17 16:47:09;;;;;;;91.17;43.80;;;;;;;;;;740146;188;816480;-59
2022/12/17 16:49:35;;;;;;;98.57;46.73;;;;;;;;;;736799;188;918845;-57
2022/12/17 16:52:02;;;;;;;116.57;50.43;;;;;;;;;;744016;188;892144;-59
2022/12/17 16:54:27;;;;;;;98.77;45.80;;;;;;;;;;738475;188;918922;-57
2022/12/17 16:56:53;;;;;;;121.17;51.53;;;;;;;;;;736708;187;818335;-58
2022/12/17 16:59:19;;;;;;;139.53;58.00;;;;;;;;;;743597;187;919342;-59
2022/12/17 17:01:45;;;;;;;160.87;60.93;;;;;;;;;;737436;187;911336;-57
2022/12/17 17:04:11;;;;;;;137.33;54.70;;;;;;;;;;729363;191;919470;-57
2022/12/17 17:06:40;;;;;;;137.80;58.70;;;;;;;;;;737225;188;920058;-58
2022/12/17 17:09:06;;;;;;;122.20;55.37;;;;;;;;;;744982;187;813834;-57
2022/12/17 17:11:32;;;;;;;157.77;63.97;;;;;;;;;;741877;188;821694;-59
2022/12/17 17:13:58;;;;;;;194.37;76.32;;;;;;;;;;733941;189;922095;-56
2022/12/17 17:16:24;;;;;;;305.53;106.97;;;;;;;;;;730834;192;629941;-57
2022/12/17 17:18:50;;;;;;;249.77;91.13;;;;;;;;;;742185;188;813054;-58
2022/12/17 17:21:16;;;;;;;598.53;132.63;;;;;;;;;;742444;188;919150;-58
2022/12/17 17:23:42;;;;;;;777.07;151.13;;;;;;;;;;735795;187;918876;-57
2022/12/17 17:26:08;;;;;;;294.83;110.30;;;;;;;;;;739663;186;918373;-57
2022/12/17 17:28:34;;;;;;;223.47;91.27;;;;;;;;;;738350;187;921124;-57
2022/12/17 17:31:01;;;;;;;297.67;109.07;;;;;;;;;;743021;188;919836;-59
2022/12/17 17:33:27;;;;;;;482.63;134.40;;;;;;;;;;748255;188;816625;-57
2022/12/17 17:35:53;;;;;;;270.97;103.50;;;;;;;;;;737378;188;916765;-56
2022/12/17 17:38:19;;;;;;;275.48;108.40;;;;;;;;;;728939;190;871106;-57
2022/12/17 17:40:45;;;;;;;312.00;114.83;;;;;;;;;;741610;187;899870;-57
2022/12/17 17:43:11;;;;;;;230.53;93.43;;;;;;;;;;740994;187;919410;-57
2022/12/17 17:45:39;;;;;;;216.23;89.67;;;;;;;;;;742733;187;936072;-58
2022/12/17 17:48:02;;;;;;;196.63;82.70;;;;;;;;;;740103;187;917368;-58
2022/12/17 17:50:28;;;;;;;198.90;84.50;;;;;;;;;;742953;187;918991;-58
2022/12/17 17:52:54;;;;;;;202.97;80.80;;;;;;;;;;740439;188;883696;-57
2022/12/17 17:55:20;;;;;;;199.50;85.50;;;;;;;;;;744071;185;917402;-57
2022/12/17 17:57:46;;;;;;;180.07;77.77;;;;;;;;;;741264;188;818684;-57
2022/12/17 18:00:12;;;;;;;175.17;77.80;;;;;;;;;;734234;188;816137;-56
2022/12/17 18:02:39;;;;;;;185.90;78.90;;;;;;;;;;736733;189;918823;-59
2022/12/17 18:05:04;;;;;;;208.75;86.32;;;;;;;;;;741714;187;918515;-57
2022/12/17 18:07:30;;;;;;;197.17;81.63;;;;;;;;;;745155;187;913971;-57
2022/12/17 18:09:58;;;;;;;186.07;81.37;;;;;;;;;;739172;187;813405;-59
2022/12/17 18:14:53;;;;;;;210.37;86.07;;;;;;;;;;749385;185;914226;-57
2022/12/17 18:17:19;;;;;;;191.70;83.40;;;;;;;;;;744256;188;920941;-59
2022/12/17 18:19:47;;;;;;;216.23;88.50;;;;;;;;;;737813;188;918412;-58
2022/12/17 18:22:11;;;;;;;187.60;84.90;;;;;;;;;;737025;188;819614;-57
2022/12/17 18:24:37;;;;;;;228.88;97.15;;;;;;;;;;738991;188;919475;-59
2022/12/17 18:27:03;;;;;;;215.40;87.83;;;;;;;;;;738793;186;918395;-58
2022/12/17 18:29:28;;;;;;;213.67;92.00;;;;;;;;;;732787;188;919173;-58
2022/12/17 18:31:54;;;;;;;199.80;86.33;;;;;;;;;;737490;188;922363;-57
2022/12/17 18:34:20;;;;;;;201.73;93.20;;;;;;;;;;737094;188;922035;-59
2022/12/17 18:36:46;;;;;;;181.57;79.53;;;;;;;;;;738388;188;778438;-58
2022/12/17 18:39:12;;;;;;;196.93;86.33;;;;;;;;;;740091;187;919234;-59
2022/12/17 18:44:10;;;;;;;213.93;94.40;;;;;;;;;;739840;187;890801;-60
2022/12/17 18:46:35;;;;;;;211.00;89.30;;;;;;;;;;741790;187;918223;-57
2022/12/17 18:49:01;;;;;;;224.50;92.17;;;;;;;;;;740646;187;817329;-59
2022/12/17 18:51:27;;;;;;;204.40;92.63;;;;;;;;;;745317;187;919595;-58
2022/12/17 18:53:55;;;;;;;219.48;94.72;;;;;;;;;;740063;187;918548;-58
2022/12/17 18:56:21;;;;;;;214.87;93.43;;;;;;;;;;744681;188;816240;-58
2022/12/17 18:58:46;;;;;;;199.20;91.40;;;;;;;;;;743847;187;815877;-58
2022/12/17 19:01:16;;;;;;;215.47;97.83;;;;;;;;;;735714;188;913416;-57
2022/12/17 19:03:42;;;;;;;232.37;95.40;;;;;;;;;;747309;187;811477;-58
2022/12/17 19:06:08;;;;;;;208.97;94.23;;;;;;;;;;739530;188;917772;-58
2022/12/17 19:08:34;;;;;;;209.90;91.33;;;;;;;;;;737893;187;918637;-59
2022/12/17 19:11:04;;;;;;;197.97;90.87;;;;;;;;;;738370;187;921169;-59
2022/12/17 19:13:30;;;;;;;219.43;87.03;;;;;;;;;;741173;188;919412;-58
2022/12/17 19:15:55;;;;;;;196.17;80.50;;;;;;;;;;742029;187;762072;-59
2022/12/17 19:18:21;;;;;;;195.23;88.07;;;;;;;;;;738532;187;921212;-59
2022/12/17 19:20:47;;;;;;;204.30;82.97;;;;;;;;;;743585;187;919100;-58
2022/12/17 19:23:13;;;;;;;200.33;81.03;;;;;;;;;;738995;187;911051;-59
2022/12/17 19:25:39;;;;;;;198.03;86.33;;;;;;;;;;734456;188;918407;-59
2022/12/17 19:28:04;;;;;;;186.20;86.53;;;;;;;;;;736862;188;919042;-60
2022/12/17 19:30:30;;;;;;;196.77;85.07;;;;;;;;;;745056;187;919279;-59
2022/12/17 19:32:56;;;;;;;208.60;91.77;;;;;;;;;;742154;187;818918;-59
2022/12/17 19:35:22;;;;;;;206.17;88.77;;;;;;;;;;726779;190;917127;-58
2022/12/17 19:37:48;;;;;;;178.57;84.22;;;;;;;;;;725847;192;816449;-59
2022/12/17 19:40:14;;;;;;;203.10;89.40;;;;;;;;;;736151;187;826593;-58
2022/12/17 19:42:40;;;;;;;208.37;95.80;;;;;;;;;;738940;187;816583;-58
2022/12/17 19:45:06;;;;;;;198.30;87.80;;;;;;;;;;742727;188;919464;-58
2022/12/17 19:47:32;;;;;;;171.37;81.37;;;;;;;;;;739880;187;883467;-59
2022/12/17 19:49:58;;;;;;;186.10;85.70;;;;;;;;;;735228;188;918722;-59
2022/12/17 19:52:24;;;;;;;199.18;92.15;;;;;;;;;;740127;188;940518;-58
2022/12/17 19:54:49;;;;;;;220.37;93.00;;;;;;;;;;739020;188;816627;-59
2022/12/17 19:57:15;;;;;;;187.23;90.70;;;;;;;;;;732392;190;918662;-60
2022/12/17 19:59:41;;;;;;;200.17;90.07;;;;;;;;;;734411;186;919458;-58
2022/12/17 20:02:07;;;;;;;194.53;86.37;;;;;;;;;;745109;187;918580;-58
2022/12/17 20:04:33;;;;;;;190.47;86.17;;;;;;;;;;740183;187;915191;-58
2022/12/17 20:06:59;;;;;;;208.68;95.68;;;;;;;;;;738107;184;918349;-60
2022/12/17 20:09:25;;;;;;;194.60;89.07;;;;;;;;;;732117;191;917492;-58
2022/12/17 20:11:50;;;;;;;208.23;96.63;;;;;;;;;;741301;187;821583;-61
2022/12/17 20:14:16;;;;;;;182.47;90.30;;;;;;;;;;737728;187;919501;-60
2022/12/17 20:16:43;;;;;;;215.30;99.60;;;;;;;;;;746539;187;910257;-58
2022/12/17 20:19:10;;;;;;;227.63;97.37;;;;;;;;;;735045;188;939792;-58
2022/12/17 20:21:35;;;;;;;214.40;92.13;;;;;;;;;;732294;187;920590;-58
2022/12/17 20:24:01;;;;;;;207.90;93.93;;;;;;;;;;738321;187;920413;-58
2022/12/17 20:26:27;;;;;;;199.50;95.77;;;;;;;;;;745329;187;905355;-59
2022/12/17 20:28:53;;;;;;;215.77;104.78;;;;;;;;;;734976;187;921580;-58
2022/12/17 20:31:19;;;;;;;220.43;101.40;;;;;;;;;;742684;187;918899;-58
2022/12/17 20:33:45;;;;;;;232.83;115.40;;;;;;;;;;739589;188;916987;-58
2022/12/17 20:36:11;;;;;;;262.83;125.17;;;;;;;;;;735680;188;919134;-59
2022/12/17 20:38:36;;;;;;;214.77;107.13;;;;;;;;;;738691;188;820415;-60
2022/12/17 20:41:10;;;;;;;217.15;102.12;;;;;;;;;;736774;189;930287;-58
2022/12/17 20:43:36;;;;;;;234.57;105.60;;;;;;;;;;740858;187;917557;-58
2022/12/17 20:46:02;;;;;;;214.53;99.67;;;;;;;;;;733256;187;919579;-59
2022/12/17 20:48:28;;;;;;;233.40;103.83;;;;;;;;;;744036;187;918768;-58
2022/12/17 20:50:53;;;;;;;211.90;99.40;;;;;;;;;;746259;188;817729;-58
2022/12/17 20:53:19;;;;;;;209.90;101.03;;;;;;;;;;742471;188;918859;-58
2022/12/17 20:55:45;;;;;;;220.40;105.87;;;;;;;;;;738257;187;920485;-59
2022/12/17 20:58:12;;;;;;;225.87;109.55;;;;;;;;;;739922;188;919040;-60
2022/12/17 21:00:37;;;;;;;221.00;106.03;;;;;;;;;;740490;188;914863;-58
2022/12/17 21:03:03;;;;;;;230.83;116.30;;;;;;;;;;740489;187;919627;-58
2022/12/17 21:05:29;;;;;;;232.00;111.23;;;;;;;;;;737132;188;916192;-59
2022/12/17 21:07:54;;;;;;;236.50;112.47;;;;;;;;;;743347;188;914098;-58
2022/12/17 21:10:21;;;;;;;231.80;106.70;;;;;;;;;;735893;188;818909;-60
2022/12/17 21:15:18;;;;;;;236.07;107.93;;;;;;;;;;725691;194;890675;-60
2022/12/17 21:17:44;;;;;;;251.43;119.60;;;;;;;;;;739800;187;812721;-58
2022/12/17 21:20:10;;;;;;;254.70;120.47;;;;;;;;;;743495;188;914096;-58
2022/12/17 21:22:37;;;;;;;241.97;113.23;;;;;;;;;;738381;188;918177;-58
2022/12/17 21:25:03;;;;;;;259.10;120.13;;;;;;;;;;748467;185;918703;-58
2022/12/17 21:27:29;;;;;;;249.13;124.80;;;;;;;;;;744442;187;919134;-60
2022/12/17 21:29:56;;;;;;;261.40;120.73;;;;;;;;;;743667;187;916622;-59
2022/12/17 21:32:21;;;;;;;233.03;117.13;;;;;;;;;;742370;187;918593;-60
2022/12/17 21:34:46;;;;;;;228.17;115.43;;;;;;;;;;740992;188;918764;-59
2022/12/17 21:37:12;;;;;;;251.50;123.83;;;;;;;;;;737412;188;918659;-58
2022/12/17 21:39:39;;;;;;;237.37;123.63;;;;;;;;;;742892;187;920104;-58
2022/12/17 21:44:36;;;;;;;218.37;112.35;;;;;;;;;;739948;188;917906;-58
2022/12/17 21:47:02;;;;;;;236.33;116.97;;;;;;;;;;740877;187;919241;-59
2022/12/17 21:49:28;;;;;;;231.23;116.33;;;;;;;;;;735270;188;921401;-59
2022/12/17 21:51:53;;;;;;;239.43;114.93;;;;;;;;;;736946;188;919252;-58
2022/12/17 21:54:19;;;;;;;256.17;118.97;;;;;;;;;;740188;187;920839;-60
2022/12/17 21:56:45;;;;;;;250.27;115.90;;;;;;;;;;743409;187;919730;-57
2022/12/17 21:59:11;;;;;;;254.90;118.57;;;;;;;;;;740460;187;918132;-58
2022/12/17 22:01:37;;;;;;;232.73;121.27;;;;;;;;;;739773;187;918049;-59
2022/12/17 22:04:03;;;;;;;265.57;122.77;;;;;;;;;;738962;187;816457;-58
2022/12/17 22:06:29;;;;;;;236.70;113.70;;;;;;;;;;742213;188;918713;-59
2022/12/17 22:08:55;;;;;;;226.67;114.87;;;;;;;;;;737645;187;815268;-58
2022/12/17 22:11:21;;;;;;;247.00;111.20;;;;;;;;;;738223;188;919510;-58
2022/12/17 22:16:18;;;;;;;224.43;108.63;;;;;;;;;;734729;188;919178;-58
2022/12/17 22:18:44;;;;;;;212.73;109.00;;;;;;;;;;740107;187;921489;-58
2022/12/17 22:21:10;;;;;;;228.50;116.43;;;;;;;;;;740410;188;919075;-58
2022/12/17 22:23:36;;;;;;;241.93;116.83;;;;;;;;;;730779;190;920660;-59
2022/12/17 22:26:02;;;;;;;210.37;104.73;;;;;;;;;;741739;187;919187;-58
2022/12/17 22:28:27;;;;;;;222.88;108.68;;;;;;;;;;739323;188;916397;-59
2022/12/17 22:33:25;;;;;;;217.33;104.80;;;;;;;;;;737087;187;919405;-58
2022/12/17 22:35:51;;;;;;;234.47;111.00;;;;;;;;;;742869;186;817986;-59
2022/12/17 22:38:17;;;;;;;218.43;109.35;;;;;;;;;;745121;188;922571;-58
2022/12/17 22:40:43;;;;;;;235.63;113.73;;;;;;;;;;749388;183;924901;-58
2022/12/17 22:45:41;;;;;;;221.07;105.13;;;;;;;;;;737924;188;919069;-59
2022/12/17 22:48:07;;;;;;;229.53;103.60;;;;;;;;;;736110;188;918736;-59
2022/12/17 22:50:33;;;;;;;206.23;101.90;;;;;;;;;;739076;187;918741;-58
2022/12/17 22:52:59;;;;;;;230.20;114.03;;;;;;;;;;737991;188;920751;-58
2022/12/17 22:55:25;;;;;;;227.60;109.67;;;;;;;;;;741261;187;816959;-59
2022/12/17 22:57:51;;;;;;;220.37;106.97;;;;;;;;;;743926;187;919110;-58
2022/12/17 23:00:17;;;;;;;218.40;106.80;;;;;;;;;;738442;188;921190;-59
2022/12/17 23:02:43;;;;;;;222.13;112.67;;;;;;;;;;736158;188;917764;-59
2022/12/17 23:05:08;;;;;;;220.17;103.47;;;;;;;;;;744698;187;637723;-60
2022/12/17 23:07:34;;;;;;;221.50;108.00;;;;;;;;;;743557;188;641045;-58
2022/12/17 23:10:00;;;;;;;217.47;103.13;;;;;;;;;;743869;187;619381;-58
2022/12/17 23:14:58;;;;;;;138.17;63.37;;;;;;;;;;754530;187;621383;-58
2022/12/17 23:17:23;;;;;;;168.10;72.90;;;;;;;;;;745616;188;919076;-58
2022/12/17 23:19:49;;;;;;;150.20;64.80;;;;;;;;;;738232;188;919569;-59
2022/12/17 23:22:15;;;;;;;157.88;73.15;;;;;;;;;;738455;188;820063;-58
2022/12/17 23:24:41;;;;;;;143.83;61.83;;;;;;;;;;736048;187;915588;-57
2022/12/17 23:27:07;;;;;;;149.82;66.18;;;;;;;;;;735788;189;919465;-60
2022/12/17 23:29:33;;;;;;;157.37;67.90;;;;;;;;;;737164;188;948053;-59
2022/12/17 23:31:59;;;;;;;149.20;64.73;;;;;;;;;;740098;187;920056;-58
2022/12/17 23:34:24;;;;;;;154.53;65.33;;;;;;;;;;741047;186;918993;-58
2022/12/17 23:36:50;;;;;;;147.40;61.13;;;;;;;;;;751656;185;920506;-59
2022/12/17 23:39:16;;;;;;;136.00;55.47;;;;;;;;;;736321;187;919705;-58
2022/12/17 23:41:42;;;;;;;135.30;52.30;;;;;;;;;;743225;188;917993;-58
2022/12/17 23:44:08;;;;;;;123.93;49.87;;;;;;;;;;737987;188;810131;-58
2022/12/17 23:46:34;;;;;;;108.90;44.37;;;;;;;;;;739907;190;625470;-58
2022/12/17 23:48:59;;;;;;;100.97;43.47;;;;;;;;;;735895;189;816008;-58
2022/12/17 23:51:26;;;;;;;121.70;44.45;;;;;;;;;;742108;187;814312;-59
2022/12/17 23:53:51;;;;;;;108.93;41.50;;;;;;;;;;740389;187;918681;-58
2022/12/17 23:56:17;;;;;;;125.43;49.70;;;;;;;;;;737139;188;866700;-60
2022/12/17 23:58:43;;;;;;;111.73;46.03;;;;;;;;;;735343;188;819732;-59
